createdAt,value
2018-01-19T00:00:53.865Z,3.98
2018-01-19T00:03:24.632Z,3.96
2018-01-19T00:05:55.378Z,4.05
2018-01-19T00:08:26.120Z,4.11
2018-01-19T00:10:56.876Z,4.14
2018-01-19T00:13:27.648Z,4.16
2018-01-19T00:15:58.422Z,4.13
2018-01-19T00:18:29.177Z,4.07
2018-01-19T00:20:59.920Z,4.04
2018-01-19T00:23:30.689Z,4.00
2018-01-19T00:26:01.558Z,3.93
2018-01-19T00:28:32.305Z,3.82
2018-01-19T00:31:03.048Z,3.80
2018-01-19T00:33:33.813Z,3.79
2018-01-19T00:36:04.548Z,3.62
2018-01-19T00:38:35.325Z,3.64
2018-01-19T00:41:06.062Z,3.58
2018-01-19T00:43:36.831Z,3.50
2018-01-19T00:46:07.574Z,3.55
2018-01-19T00:48:38.353Z,3.49
2018-01-19T00:51:09.104Z,3.46
2018-01-19T00:53:39.864Z,3.50
2018-01-19T00:56:10.592Z,3.73
2018-01-19T00:58:41.344Z,3.69
2018-01-19T01:01:12.097Z,3.67
2018-01-19T01:03:42.857Z,3.75
2018-01-19T01:06:13.612Z,3.77
2018-01-19T01:08:44.366Z,3.76
2018-01-19T01:11:15.109Z,3.76
2018-01-19T01:13:45.884Z,3.80
2018-01-19T01:16:16.629Z,3.80
2018-01-19T01:18:47.412Z,3.78
2018-01-19T01:21:18.188Z,3.82
2018-01-19T01:23:48.948Z,3.81
2018-01-19T01:26:19.691Z,3.81
2018-01-19T01:28:50.472Z,3.81
2018-01-19T01:31:21.200Z,3.89
2018-01-19T01:33:51.982Z,3.88
2018-01-19T01:36:22.729Z,3.96
2018-01-19T01:38:53.494Z,3.98
2018-01-19T01:41:24.239Z,4.02
2018-01-19T01:43:55.004Z,4.02
2018-01-19T01:46:25.736Z,4.05
2018-01-19T01:49:08.760Z,3.98
2018-01-19T01:51:39.574Z,4.04
2018-01-19T01:54:10.305Z,4.00
2018-01-19T01:56:41.045Z,4.01
2018-01-19T01:59:11.793Z,4.05
2018-01-19T02:01:42.541Z,4.11
2018-01-19T02:04:13.300Z,4.10
2018-01-19T02:06:44.045Z,4.12
2018-01-19T02:09:14.808Z,4.16
2018-01-19T02:11:45.575Z,4.18
2018-01-19T02:14:16.322Z,4.24
2018-01-19T02:16:47.069Z,4.22
2018-01-19T02:19:17.836Z,4.23
2018-01-19T02:21:48.615Z,4.19
2018-01-19T02:24:19.378Z,4.17
2018-01-19T02:26:50.130Z,4.21
2018-01-19T02:29:20.925Z,4.21
2018-01-19T02:31:51.714Z,4.26
2018-01-19T02:34:22.503Z,4.33
2018-01-19T02:36:53.257Z,4.29
2018-01-19T02:39:24.044Z,4.36
2018-01-19T02:41:54.815Z,4.39
2018-01-19T02:44:25.572Z,4.38
2018-01-19T02:46:56.345Z,4.37
2018-01-19T02:49:27.096Z,4.35
2018-01-19T02:51:57.847Z,4.33
2018-01-19T02:54:28.625Z,4.42
2018-01-19T02:56:59.392Z,4.42
2018-01-19T02:59:30.168Z,4.50
2018-01-19T03:02:00.916Z,4.46
2018-01-19T03:04:31.677Z,4.45
2018-01-19T03:07:02.413Z,4.54
2018-01-19T03:09:33.185Z,4.48
2018-01-19T03:12:03.941Z,4.53
2018-01-19T03:14:34.712Z,4.55
2018-01-19T03:17:05.489Z,4.48
2018-01-19T03:19:36.271Z,4.56
2018-01-19T03:22:07.021Z,4.61
2018-01-19T03:24:37.800Z,4.38
2018-01-19T03:27:08.559Z,3.59
2018-01-19T03:29:39.321Z,2.93
2018-01-19T03:32:10.077Z,2.64
2018-01-19T03:34:40.906Z,2.50
2018-01-19T03:37:11.671Z,2.44
2018-01-19T03:39:42.440Z,2.44
2018-01-19T03:42:13.202Z,2.37
2018-01-19T03:44:43.980Z,2.40
2018-01-19T03:47:14.737Z,2.37
2018-01-19T03:49:45.542Z,2.33
2018-01-19T03:52:16.251Z,2.32
2018-01-19T03:54:47.014Z,2.31
2018-01-19T03:57:17.760Z,2.21
2018-01-19T03:59:48.525Z,2.16
2018-01-19T04:02:19.278Z,2.16
2018-01-19T04:04:50.041Z,2.13
2018-01-19T04:07:20.804Z,2.07
2018-01-19T04:09:51.651Z,2.11
2018-01-19T04:12:22.435Z,2.11
2018-01-19T04:14:53.197Z,2.11
2018-01-19T04:17:23.950Z,2.07
2018-01-19T04:19:54.727Z,2.06
2018-01-19T04:22:25.549Z,2.04
2018-01-19T04:24:56.325Z,2.06
2018-01-19T04:27:27.080Z,2.04
2018-01-19T04:29:57.836Z,2.00
2018-01-19T04:32:28.621Z,2.00
2018-01-19T04:34:59.392Z,1.98
2018-01-19T04:37:30.129Z,1.95
2018-01-19T04:40:00.912Z,1.98
2018-01-19T04:42:31.660Z,1.95
2018-01-19T04:45:02.446Z,2.01
2018-01-19T04:47:33.183Z,2.01
2018-01-19T04:50:03.953Z,2.05
2018-01-19T04:52:34.709Z,2.07
2018-01-19T04:55:05.470Z,2.11
2018-01-19T04:57:36.226Z,2.25
2018-01-19T05:00:06.989Z,2.32
2018-01-19T05:02:37.720Z,2.53
2018-01-19T05:05:08.491Z,2.60
2018-01-19T05:07:39.261Z,2.65
2018-01-19T05:10:10.033Z,2.67
2018-01-19T05:12:40.815Z,2.68
2018-01-19T05:15:11.593Z,2.67
2018-01-19T05:17:42.346Z,2.77
2018-01-19T05:20:13.100Z,2.77
2018-01-19T05:22:43.856Z,2.79
2018-01-19T05:25:14.612Z,2.82
2018-01-19T05:27:45.344Z,2.87
2018-01-19T05:30:16.121Z,2.97
2018-01-19T05:32:46.869Z,3.10
2018-01-19T05:35:17.620Z,3.07
2018-01-19T05:37:48.359Z,3.11
2018-01-19T05:40:19.140Z,3.13
2018-01-19T05:42:49.896Z,3.11
2018-01-19T05:45:20.652Z,3.08
2018-01-19T05:47:51.379Z,3.03
2018-01-19T05:50:22.136Z,3.05
2018-01-19T05:52:52.879Z,3.05
2018-01-19T05:55:23.640Z,3.05
2018-01-19T05:57:54.378Z,3.13
2018-01-19T06:00:25.136Z,3.13
2018-01-19T06:02:55.886Z,3.13
2018-01-19T06:05:26.714Z,3.09
2018-01-19T06:07:57.428Z,2.97
2018-01-19T06:10:28.209Z,2.94
2018-01-19T06:12:59.232Z,2.80
2018-01-19T06:15:29.989Z,2.78
2018-01-19T06:18:00.737Z,2.80
2018-01-19T06:20:31.504Z,2.86
2018-01-19T06:23:02.248Z,2.96
2018-01-19T06:25:33.017Z,3.01
2018-01-19T06:28:03.764Z,3.02
2018-01-19T06:30:34.540Z,3.07
2018-01-19T06:33:05.294Z,3.16
2018-01-19T06:35:36.061Z,3.22
2018-01-19T06:38:06.870Z,3.23
2018-01-19T06:40:37.584Z,3.26
2018-01-19T06:43:08.333Z,3.24
2018-01-19T06:45:39.088Z,3.30
2018-01-19T06:48:09.834Z,3.28
2018-01-19T06:50:40.609Z,3.32
2018-01-19T06:53:11.362Z,3.35
2018-01-19T06:55:42.114Z,3.34
2018-01-19T06:58:12.876Z,3.38
2018-01-19T07:00:43.650Z,3.38
2018-01-19T07:03:14.389Z,3.50
2018-01-19T07:05:45.161Z,3.49
2018-01-19T07:08:15.926Z,3.51
2018-01-19T07:10:46.683Z,3.50
2018-01-19T07:13:17.431Z,3.55
2018-01-19T07:15:48.173Z,3.61
2018-01-19T07:18:18.924Z,3.63
2018-01-19T07:20:49.665Z,3.66
2018-01-19T07:23:20.404Z,3.70
2018-01-19T07:25:51.177Z,3.70
2018-01-19T07:28:21.962Z,3.72
2018-01-19T07:30:52.721Z,3.72
2018-01-19T07:33:23.455Z,3.70
2018-01-19T07:35:54.225Z,3.77
2018-01-19T07:38:24.979Z,3.73
2018-01-19T07:40:55.774Z,3.67
2018-01-19T07:43:26.534Z,3.60
2018-01-19T07:45:57.319Z,3.56
2018-01-19T07:48:28.055Z,3.62
2018-01-19T07:50:58.853Z,3.68
2018-01-19T07:53:29.636Z,3.81
2018-01-19T07:56:00.434Z,3.82
2018-01-19T07:58:31.210Z,3.81
2018-01-19T08:01:02.072Z,3.76
2018-01-19T08:03:32.819Z,3.74
2018-01-19T08:06:03.607Z,3.72
2018-01-19T08:08:34.361Z,3.74
2018-01-19T08:11:05.262Z,3.76
2018-01-19T08:13:36.039Z,3.87
2018-01-19T08:16:06.870Z,3.98
2018-01-19T08:18:37.726Z,4.01
2018-01-19T08:21:08.477Z,4.03
2018-01-19T08:23:39.241Z,3.94
2018-01-19T08:26:09.996Z,3.92
2018-01-19T08:28:40.893Z,3.96
2018-01-19T08:31:11.645Z,4.07
2018-01-19T08:33:42.397Z,4.12
2018-01-19T08:36:13.148Z,4.33
2018-01-19T08:38:43.929Z,4.54
2018-01-19T08:41:14.684Z,4.83
2018-01-19T08:43:45.472Z,5.04
2018-01-19T08:46:16.232Z,5.25
2018-01-19T08:48:47.010Z,5.14
2018-01-19T08:51:17.781Z,4.74
2018-01-19T08:53:48.539Z,4.60
2018-01-19T08:56:19.304Z,4.65
2018-01-19T08:58:50.076Z,4.82
2018-01-19T09:01:20.850Z,4.90
2018-01-19T09:03:51.599Z,4.80
2018-01-19T09:06:22.381Z,4.85
2018-01-19T09:08:53.131Z,4.88
2018-01-19T09:11:23.904Z,4.72
2018-01-19T09:13:54.655Z,4.65
2018-01-19T09:16:25.413Z,4.63
2018-01-19T09:18:56.185Z,4.68
2018-01-19T09:21:26.949Z,4.66
2018-01-19T09:23:57.750Z,4.71
2018-01-19T09:26:28.525Z,4.76
2018-01-19T09:28:59.297Z,4.52
2018-01-19T09:31:30.047Z,4.60
2018-01-19T09:34:00.822Z,4.71
2018-01-19T09:36:31.574Z,4.56
2018-01-19T09:39:02.468Z,4.51
2018-01-19T09:41:33.218Z,4.61
2018-01-19T09:44:03.992Z,4.58
2018-01-19T09:46:34.785Z,4.46
2018-01-19T09:49:05.599Z,4.37
2018-01-19T09:51:36.368Z,4.30
2018-01-19T09:54:07.158Z,4.23
2018-01-19T09:56:37.924Z,4.21
2018-01-19T09:59:08.670Z,4.19
2018-01-19T10:01:39.428Z,4.12
2018-01-19T10:04:10.198Z,4.27
2018-01-19T10:06:41.007Z,4.33
2018-01-19T10:09:11.819Z,4.20
2018-01-19T10:11:42.604Z,4.20
2018-01-19T10:14:13.400Z,4.32
2018-01-19T10:16:44.178Z,4.14
2018-01-19T10:19:14.948Z,4.14
2018-01-19T10:21:45.712Z,4.16
2018-01-19T10:24:16.459Z,4.13
2018-01-19T10:26:47.201Z,4.13
2018-01-19T10:29:17.976Z,4.22
2018-01-19T10:31:48.760Z,4.25
2018-01-19T10:34:19.539Z,4.26
2018-01-19T10:36:50.284Z,4.40
2018-01-19T10:39:21.063Z,4.70
2018-01-19T10:41:51.829Z,4.76
2018-01-19T10:44:22.605Z,4.62
2018-01-19T10:46:53.356Z,4.38
2018-01-19T10:49:24.133Z,4.25
2018-01-19T10:51:54.903Z,4.13
2018-01-19T10:54:25.679Z,4.20
2018-01-19T10:57:03.545Z,4.21
2018-01-19T10:59:34.307Z,4.15
2018-01-19T11:02:05.052Z,4.22
2018-01-19T11:04:35.816Z,4.10
2018-01-19T11:07:06.600Z,4.12
2018-01-19T11:09:37.384Z,4.26
2018-01-19T11:12:08.160Z,4.28
2018-01-19T11:14:38.959Z,4.24
2018-01-19T11:17:09.720Z,4.23
2018-01-19T11:19:40.515Z,4.34
2018-01-19T11:22:11.317Z,4.23
2018-01-19T11:24:42.064Z,4.23
2018-01-19T11:27:12.825Z,4.22
2018-01-19T11:29:43.592Z,4.30
2018-01-19T11:32:14.348Z,4.23
2018-01-19T11:34:45.104Z,4.28
2018-01-19T11:37:15.866Z,4.32
2018-01-19T11:39:46.638Z,4.38
2018-01-19T11:42:17.400Z,4.41
2018-01-19T11:44:48.232Z,4.43
2018-01-19T11:47:18.989Z,4.41
2018-01-19T11:49:49.756Z,4.48
2018-01-19T11:52:20.525Z,4.57
2018-01-19T11:54:51.314Z,4.58
2018-01-19T11:57:22.064Z,4.58
2018-01-19T11:59:52.843Z,4.55
2018-01-19T12:02:30.235Z,4.70
2018-01-19T12:05:01.046Z,4.96
2018-01-19T12:07:31.799Z,4.93
2018-01-19T12:10:02.593Z,4.98
2018-01-19T12:12:33.361Z,5.06
2018-01-19T12:15:04.242Z,5.05
2018-01-19T12:17:35.056Z,4.87
2018-01-19T12:20:05.893Z,4.83
2018-01-19T12:22:36.655Z,4.77
2018-01-19T12:25:07.411Z,4.82
2018-01-19T12:27:38.173Z,4.73
2018-01-19T12:30:09.063Z,4.78
2018-01-19T12:32:40.735Z,4.83
2018-01-19T12:35:11.483Z,4.91
2018-01-19T12:37:42.249Z,4.84
2018-01-19T12:40:13.093Z,4.86
2018-01-19T12:42:43.870Z,4.95
2018-01-19T12:51:17.607Z,4.91
2018-01-19T12:53:49.176Z,4.97
2018-01-19T12:56:20.617Z,4.98
2018-01-19T12:58:51.411Z,4.89
2018-01-19T13:01:22.198Z,4.84
2018-01-19T13:03:52.958Z,4.87
2018-01-19T13:06:23.768Z,4.83
2018-01-19T13:08:54.528Z,4.94
2018-01-19T13:11:25.320Z,5.00
2018-01-19T13:13:56.104Z,5.01
2018-01-19T13:16:26.863Z,5.02
2018-01-19T13:18:57.612Z,4.90
2018-01-19T13:21:28.417Z,4.80
2018-01-19T13:23:59.169Z,4.87
2018-01-19T13:26:29.972Z,4.98
2018-01-19T13:29:00.733Z,4.87
2018-01-19T13:31:31.597Z,4.90
2018-01-19T13:34:02.336Z,4.89
2018-01-19T13:36:33.103Z,4.95
2018-01-19T13:39:03.864Z,4.96
2018-01-19T13:41:34.640Z,4.95
2018-01-19T13:44:05.400Z,5.11
2018-01-19T13:46:36.175Z,5.39
2018-01-19T13:49:06.929Z,5.53
2018-01-19T13:51:37.699Z,5.34
2018-01-19T13:54:08.463Z,5.25
2018-01-19T13:56:39.240Z,5.16
2018-01-19T13:59:09.999Z,5.15
2018-01-19T14:01:40.795Z,5.16
2018-01-19T14:04:11.557Z,4.99
2018-01-19T14:06:42.380Z,5.07
2018-01-19T14:09:13.152Z,4.91
2018-01-19T14:11:43.917Z,4.81
2018-01-19T14:14:14.682Z,4.59
2018-01-19T14:16:45.467Z,4.53
2018-01-19T14:19:16.224Z,4.42
2018-01-19T14:21:47.037Z,4.28
2018-01-19T14:24:17.881Z,4.19
2018-01-19T14:26:48.633Z,4.08
2018-01-19T14:29:19.384Z,4.07
2018-01-19T14:31:50.138Z,4.07
2018-01-19T14:34:20.880Z,4.07
2018-01-19T14:36:51.662Z,4.09
2018-01-19T14:39:22.456Z,4.08
2018-01-19T14:41:53.207Z,4.20
2018-01-19T14:44:23.973Z,4.23
2018-01-19T14:46:54.709Z,4.17
2018-01-19T14:49:25.459Z,4.11
2018-01-19T14:51:56.244Z,4.11
2018-01-19T14:54:27.022Z,4.04
2018-01-19T14:56:57.794Z,3.88
2018-01-19T14:59:28.624Z,3.88
2018-01-19T15:01:59.362Z,3.78
2018-01-19T15:04:30.100Z,3.69
2018-01-19T15:07:00.896Z,3.65
2018-01-19T15:09:31.675Z,3.63
2018-01-19T15:12:02.464Z,3.70
2018-01-19T15:14:33.211Z,3.87
2018-01-19T15:17:03.985Z,4.00
2018-01-19T15:19:34.719Z,3.97
2018-01-19T15:22:05.467Z,3.97
2018-01-19T15:24:36.228Z,3.93
2018-01-19T15:27:06.988Z,3.80
2018-01-19T15:29:37.724Z,3.73
2018-01-19T15:32:08.494Z,3.52
2018-01-19T15:34:39.223Z,3.28
2018-01-19T15:37:09.989Z,3.12
2018-01-19T15:39:40.721Z,2.83
2018-01-19T15:42:11.535Z,2.58
2018-01-19T15:44:42.271Z,2.48
2018-01-19T15:47:13.029Z,2.29
2018-01-19T15:49:43.772Z,2.37
2018-01-19T15:52:14.520Z,2.32
2018-01-19T15:54:45.272Z,2.21
2018-01-19T15:57:16.031Z,2.20
2018-01-19T15:59:46.769Z,2.11
2018-01-19T16:02:17.599Z,2.06
2018-01-19T16:04:48.344Z,2.06
2018-01-19T16:07:19.116Z,2.00
2018-01-19T16:09:49.856Z,1.97
2018-01-19T16:12:20.662Z,1.88
2018-01-19T16:14:51.472Z,1.79
2018-01-19T16:17:23.706Z,1.85
2018-01-19T16:19:54.711Z,1.83
2018-01-19T16:22:25.669Z,1.83
2018-01-19T16:24:56.669Z,1.73
2018-01-19T16:27:27.751Z,1.50
2018-01-19T16:29:58.689Z,1.38
2018-01-19T16:32:29.809Z,1.47
2018-01-19T16:35:00.606Z,1.42
2018-01-19T16:37:31.852Z,1.30
2018-01-19T16:40:02.905Z,1.21
2018-01-19T16:42:33.999Z,1.11
2018-01-19T16:45:04.973Z,0.79
2018-01-19T16:47:36.057Z,0.62
2018-01-19T16:50:06.828Z,0.54
2018-01-19T16:52:37.812Z,0.49
2018-01-19T16:55:08.547Z,0.47
2018-01-19T16:57:39.472Z,0.56
2018-01-19T17:00:10.425Z,0.53
2018-01-19T17:02:42.225Z,0.39
2018-01-19T17:05:13.022Z,0.30
2018-01-19T17:07:43.827Z,0.40
2018-01-19T17:10:15.674Z,0.22
2018-01-19T17:12:46.546Z,0.09
2018-01-19T17:15:17.296Z,0.08
2018-01-19T17:17:48.230Z,0.20
2018-01-19T17:20:18.983Z,0.24
2018-01-19T17:22:49.740Z,0.27
2018-01-19T17:25:20.533Z,0.37
2018-01-19T17:27:51.308Z,0.36
2018-01-19T17:30:23.747Z,0.47
2018-01-19T17:32:54.861Z,0.60
2018-01-19T17:35:25.643Z,0.72
2018-01-19T17:37:57.202Z,0.74
2018-01-19T17:40:27.983Z,0.63
2018-01-19T17:42:58.749Z,0.63
2018-01-19T17:45:29.501Z,0.51
2018-01-19T17:48:00.661Z,0.22
2018-01-19T17:50:31.497Z,0.03
2018-01-19T17:53:02.288Z,0.00
2018-01-19T17:55:33.033Z,0.01
2018-01-19T17:58:03.868Z,0.10
2018-01-19T18:00:34.648Z,0.08
2018-01-19T18:03:05.454Z,0.10
2018-01-19T18:05:36.604Z,0.04
2018-01-19T18:08:07.483Z,-0.03
2018-01-19T18:10:38.322Z,0.02
2018-01-19T18:13:09.136Z,0.12
2018-01-19T18:15:39.936Z,0.23
2018-01-19T18:18:10.721Z,0.28
2018-01-19T18:20:41.512Z,0.43
2018-01-19T18:23:12.441Z,0.60
2018-01-19T18:25:43.295Z,0.77
2018-01-19T18:28:14.154Z,0.69
2018-01-19T18:30:45.424Z,0.62
2018-01-19T18:33:16.532Z,0.61
2018-01-19T18:35:47.375Z,0.62
2018-01-19T18:38:18.168Z,0.60
2018-01-19T18:40:48.946Z,0.64
2018-01-19T18:43:19.781Z,0.66
2018-01-19T18:45:50.560Z,0.79
2018-01-19T18:48:21.450Z,0.74
2018-01-19T18:50:52.655Z,0.63
2018-01-19T18:53:23.541Z,0.62
2018-01-19T18:55:54.788Z,0.60
2018-01-19T18:58:25.632Z,0.53
2018-01-19T19:00:56.893Z,0.53
2018-01-19T19:03:27.766Z,0.56
2018-01-19T19:05:58.644Z,0.61
2018-01-19T19:08:29.455Z,0.71
2018-01-19T19:11:00.318Z,0.74
2018-01-19T19:13:31.147Z,0.70
2018-01-19T19:16:01.936Z,0.71
2018-01-19T19:18:32.717Z,0.75
2018-01-19T19:21:03.631Z,0.80
2018-01-19T19:23:34.471Z,0.81
2018-01-19T19:26:05.277Z,0.86
2018-01-19T19:28:36.190Z,0.83
2018-01-19T19:31:07.082Z,0.88
2018-01-19T19:33:38.010Z,0.98
2018-01-19T19:36:08.903Z,1.00
2018-01-19T19:38:39.773Z,0.97
2018-01-19T19:41:10.784Z,1.01
2018-01-19T19:43:41.577Z,0.95
2018-01-19T19:46:12.475Z,0.96
2018-01-19T19:48:43.321Z,0.93
2018-01-19T19:51:14.343Z,0.97
2018-01-19T19:53:45.218Z,1.06
2018-01-19T19:56:16.400Z,1.16
2018-01-19T19:58:47.270Z,1.16
2018-01-19T20:01:18.069Z,1.21
2018-01-19T20:03:48.950Z,1.18
2018-01-19T20:06:19.838Z,1.22
2018-01-19T20:08:50.655Z,1.21
2018-01-19T20:11:24.785Z,1.26
2018-01-19T20:13:55.664Z,1.30
2018-01-19T20:16:26.472Z,1.38
2018-01-19T20:18:57.343Z,1.38
2018-01-19T20:21:28.162Z,1.40
2018-01-19T20:23:58.992Z,1.36
2018-01-19T20:26:29.859Z,1.46
2018-01-19T20:29:00.651Z,1.58
2018-01-19T20:31:31.499Z,1.74
2018-01-19T20:34:02.324Z,1.77
2018-01-19T20:36:33.078Z,1.76
2018-01-19T20:39:03.960Z,1.74
2018-01-19T20:41:34.792Z,1.80
2018-01-19T20:44:05.716Z,1.82
2018-01-19T20:46:36.505Z,1.77
2018-01-19T20:49:07.334Z,1.81
2018-01-19T20:51:38.187Z,1.72
2018-01-19T20:54:09.020Z,1.71
2018-01-19T20:56:39.896Z,1.65
2018-01-19T20:59:10.955Z,1.57
2018-01-19T21:01:41.742Z,1.52
2018-01-19T21:04:12.546Z,1.48
2018-01-19T21:06:43.360Z,1.36
2018-01-19T21:09:14.169Z,1.32
2018-01-19T21:11:46.020Z,1.26
2018-01-19T21:14:18.931Z,1.28
2018-01-19T21:16:49.851Z,1.29
2018-01-19T21:19:20.612Z,1.23
2018-01-19T21:21:51.431Z,1.20
2018-01-19T21:24:22.261Z,1.17
2018-01-19T21:26:52.991Z,1.18
2018-01-19T21:29:23.806Z,1.15
2018-01-19T21:31:54.600Z,1.10
2018-01-19T21:34:25.440Z,1.08
2018-01-19T21:36:56.264Z,1.05
2018-01-19T21:39:27.021Z,1.05
2018-01-19T21:42:00.185Z,1.05
2018-01-19T21:44:31.035Z,1.05
2018-01-19T21:47:01.830Z,1.03
2018-01-19T21:49:32.688Z,1.10
2018-01-19T21:52:03.457Z,1.10
2018-01-19T21:54:34.292Z,1.22
2018-01-19T21:57:05.085Z,1.13
2018-01-19T21:59:36.003Z,1.19
2018-01-19T22:02:06.756Z,1.17
2018-01-19T22:04:37.510Z,1.17
2018-01-19T22:07:08.459Z,1.16
2018-01-19T22:09:39.278Z,1.16
2018-01-19T22:12:10.036Z,1.10
2018-01-19T22:14:40.885Z,1.10
2018-01-19T22:17:11.737Z,1.08
2018-01-19T22:19:42.612Z,1.13
2018-01-19T22:22:13.431Z,1.12
2018-01-19T22:24:44.303Z,1.11
2018-01-19T22:27:15.142Z,1.08
2018-01-19T22:29:45.957Z,1.08
2018-01-19T22:32:17.260Z,1.06
2018-01-19T22:34:48.096Z,1.08
2018-01-19T22:37:18.900Z,1.00
2018-01-19T22:39:50.197Z,1.04
2018-01-19T22:42:21.056Z,1.09
2018-01-19T22:44:51.855Z,1.15
2018-01-19T22:47:23.729Z,1.17
2018-01-19T22:49:54.677Z,1.23
2018-01-19T22:52:25.444Z,1.27
2018-01-19T22:54:56.228Z,1.19
2018-01-19T22:57:27.431Z,1.13
2018-01-19T22:59:58.414Z,1.11
2018-01-19T23:02:29.219Z,1.20
2018-01-19T23:05:00.031Z,1.18
2018-01-19T23:07:31.349Z,1.16
2018-01-19T23:10:02.195Z,1.24
2018-01-19T23:12:33.088Z,1.19
2018-01-19T23:15:04.291Z,1.20
2018-01-19T23:17:35.212Z,1.24
2018-01-19T23:20:06.176Z,1.17
2018-01-19T23:22:37.084Z,1.22
2018-01-19T23:25:07.884Z,1.23
2018-01-19T23:27:38.703Z,1.25
2018-01-19T23:30:10.045Z,1.22
2018-01-19T23:32:41.653Z,1.28
2018-01-19T23:35:12.774Z,1.26
2018-01-19T23:37:43.703Z,1.29
2018-01-19T23:40:14.646Z,1.28
2018-01-19T23:42:45.572Z,1.25
2018-01-19T23:45:16.344Z,1.22
2018-01-19T23:47:47.158Z,1.28
2018-01-19T23:50:17.932Z,1.26
2018-01-19T23:52:48.704Z,1.27
2018-01-19T23:55:19.540Z,1.29
2018-01-19T23:57:50.332Z,1.27
